createdAt,value
2018-07-06T00:01:46.660Z,7.23
2018-07-06T00:04:26.308Z,7.77
2018-07-06T00:07:06.008Z,9.17
2018-07-06T00:09:45.704Z,12.17
2018-07-06T00:12:25.387Z,16.27
2018-07-06T00:15:05.015Z,6.33
2018-07-06T00:17:44.616Z,7.63
2018-07-06T00:20:24.211Z,7.77
2018-07-06T00:23:03.815Z,9.63
2018-07-06T00:25:43.552Z,8.87
2018-07-06T00:28:23.040Z,14.03
2018-07-06T00:31:02.721Z,12.40
2018-07-06T00:33:42.193Z,10.53
2018-07-06T00:36:21.811Z,9.27
2018-07-06T00:39:01.372Z,9.33
2018-07-06T00:41:41.101Z,6.93
2018-07-06T00:44:20.862Z,7.93
2018-07-06T00:47:00.486Z,12.37
2018-07-06T00:49:34.203Z,13.67
2018-07-06T00:52:13.944Z,7.80
2018-07-06T00:54:53.681Z,9.97
2018-07-06T00:57:33.187Z,9.67
2018-07-06T01:00:12.896Z,5.23
2018-07-06T01:02:52.545Z,10.57
2018-07-06T01:05:32.116Z,6.67
2018-07-06T01:08:11.721Z,7.93
2018-07-06T01:10:51.588Z,7.50
2018-07-06T01:13:31.284Z,5.77
2018-07-06T01:16:10.849Z,6.00
2018-07-06T01:18:50.524Z,6.23
2018-07-06T01:21:30.038Z,5.80
2018-07-06T01:24:09.731Z,6.00
2018-07-06T01:26:49.377Z,4.90
2018-07-06T01:29:29.196Z,7.00
2018-07-06T01:32:08.920Z,5.70
2018-07-06T01:34:48.621Z,4.53
2018-07-06T01:37:28.415Z,7.67
2018-07-06T01:40:08.038Z,4.97
2018-07-06T01:42:47.657Z,7.83
2018-07-06T01:45:27.517Z,7.37
2018-07-06T01:48:08.048Z,4.50
2018-07-06T01:50:47.695Z,6.27
2018-07-06T01:53:27.434Z,4.90
2018-07-06T01:56:07.083Z,8.70
2018-07-06T01:58:46.667Z,8.23
2018-07-06T02:01:26.223Z,7.23
2018-07-06T02:04:05.721Z,6.87
2018-07-06T02:06:45.474Z,7.00
2018-07-06T02:09:25.159Z,7.47
2018-07-06T02:12:04.960Z,10.03
2018-07-06T02:14:44.485Z,6.90
2018-07-06T02:17:24.135Z,5.37
2018-07-06T02:20:03.772Z,7.73
2018-07-06T02:22:43.336Z,8.77
2018-07-06T02:25:23.014Z,15.40
2018-07-06T02:28:02.727Z,10.57
2018-07-06T02:30:42.424Z,10.00
2018-07-06T02:33:21.951Z,10.93
2018-07-06T02:36:01.773Z,8.30
2018-07-06T02:38:41.424Z,11.10
2018-07-06T02:41:21.024Z,8.03
2018-07-06T02:44:00.696Z,7.90
2018-07-06T02:46:40.426Z,9.70
2018-07-06T02:49:20.036Z,8.23
2018-07-06T02:51:59.584Z,8.03
2018-07-06T02:54:39.299Z,11.87
2018-07-06T02:57:19.048Z,9.87
2018-07-06T02:59:52.602Z,5.80
2018-07-06T03:02:32.264Z,6.73
2018-07-06T03:05:11.952Z,12.03
2018-07-06T03:07:51.380Z,12.47
2018-07-06T03:10:31.052Z,9.63
2018-07-06T03:13:10.727Z,6.57
2018-07-06T03:15:50.352Z,7.33
2018-07-06T03:18:30.040Z,9.80
2018-07-06T03:21:09.745Z,8.93
2018-07-06T03:23:49.551Z,9.93
2018-07-06T03:26:29.793Z,8.93
2018-07-06T03:29:09.564Z,10.80
2018-07-06T03:31:49.179Z,8.43
2018-07-06T03:34:28.777Z,9.87
2018-07-06T03:37:08.349Z,11.00
2018-07-06T03:39:48.057Z,9.30
2018-07-06T03:42:27.644Z,8.67
2018-07-06T03:45:07.395Z,9.07
2018-07-06T03:47:47.023Z,10.60
2018-07-06T03:50:26.576Z,10.73
2018-07-06T03:53:06.432Z,11.10
2018-07-06T03:55:46.116Z,12.00
2018-07-06T03:58:25.815Z,9.27
2018-07-06T04:01:05.367Z,9.40
2018-07-06T04:03:45.017Z,17.03
2018-07-06T04:06:24.788Z,13.90
2018-07-06T04:09:04.708Z,9.87
2018-07-06T04:11:44.399Z,10.90
2018-07-06T04:14:24.187Z,15.00
2018-07-06T04:17:03.861Z,17.20
2018-07-06T04:19:43.456Z,12.83
2018-07-06T04:22:23.029Z,18.10
2018-07-06T04:25:02.516Z,17.77
2018-07-06T04:27:42.133Z,19.73
2018-07-06T04:30:21.628Z,18.57
2018-07-06T04:33:01.232Z,17.23
2018-07-06T04:35:40.796Z,20.77
2018-07-06T04:38:20.400Z,17.73
2018-07-06T04:40:59.752Z,18.23
2018-07-06T04:43:39.564Z,15.67
2018-07-06T04:46:19.125Z,17.67
2018-07-06T04:48:58.736Z,14.70
2018-07-06T04:51:38.408Z,17.10
2018-07-06T04:54:18.017Z,16.40
2018-07-06T04:56:57.804Z,15.43
2018-07-06T04:59:37.488Z,13.83
2018-07-06T05:02:11.100Z,13.93
2018-07-06T05:04:50.784Z,16.63
2018-07-06T05:07:30.477Z,13.23
2018-07-06T05:10:09.956Z,14.77
2018-07-06T05:12:49.664Z,12.60
2018-07-06T05:15:29.365Z,15.47
2018-07-06T05:18:08.996Z,13.30
2018-07-06T05:20:48.624Z,15.33
2018-07-06T05:23:28.428Z,13.57
2018-07-06T05:26:08.069Z,15.33
2018-07-06T05:28:47.836Z,17.63
2018-07-06T05:31:27.344Z,17.73
2018-07-06T05:34:07.149Z,18.20
2018-07-06T05:36:46.729Z,14.83
2018-07-06T05:39:26.436Z,17.67
2018-07-06T05:42:06.024Z,15.77
2018-07-06T05:44:45.496Z,18.93
2018-07-06T05:47:25.240Z,18.07
2018-07-06T05:50:04.855Z,15.97
2018-07-06T05:52:44.552Z,16.73
2018-07-06T05:55:24.224Z,17.17
2018-07-06T05:58:03.890Z,19.23
2018-07-06T06:00:43.479Z,15.43
2018-07-06T06:03:23.200Z,19.20
2018-07-06T06:05:56.703Z,15.87
2018-07-06T06:08:24.184Z,17.33
2018-07-06T06:10:52.553Z,17.17
2018-07-06T06:13:20.532Z,19.33
2018-07-06T06:15:48.850Z,19.13
2018-07-06T06:18:17.044Z,20.33
2018-07-06T06:20:45.272Z,18.30
2018-07-06T06:23:13.504Z,20.10
2018-07-06T06:25:41.766Z,20.43
2018-07-06T06:28:09.996Z,22.63
2018-07-06T06:30:38.261Z,23.53
2018-07-06T06:33:06.693Z,24.43
2018-07-06T06:35:35.255Z,26.80
2018-07-06T06:38:03.476Z,25.93
2018-07-06T06:40:31.688Z,27.40
2018-07-06T06:42:59.937Z,27.27
2018-07-06T06:45:28.174Z,25.70
2018-07-06T06:47:56.510Z,24.33
2018-07-06T06:50:24.469Z,25.20
2018-07-06T06:52:52.765Z,24.70
2018-07-06T06:55:21.031Z,21.47
2018-07-06T06:57:49.260Z,25.60
2018-07-06T07:00:21.056Z,24.03
2018-07-06T07:02:45.684Z,28.77
2018-07-06T07:05:13.909Z,24.53
2018-07-06T07:07:42.206Z,26.77
2018-07-06T07:10:10.385Z,25.47
2018-07-06T07:12:38.596Z,21.87
2018-07-06T07:15:07.044Z,25.73
2018-07-06T07:17:35.432Z,25.83
2018-07-06T07:20:03.662Z,23.03
2018-07-06T07:22:31.908Z,22.90
2018-07-06T07:25:00.167Z,22.73
2018-07-06T07:27:28.510Z,22.73
2018-07-06T07:29:56.742Z,22.47
2018-07-06T07:32:25.005Z,23.63
2018-07-06T07:34:53.273Z,23.80
2018-07-06T07:37:21.497Z,24.93
2018-07-06T07:39:49.711Z,23.90
2018-07-06T07:42:17.929Z,21.93
2018-07-06T07:44:46.157Z,23.30
2018-07-06T07:47:14.371Z,25.27
2018-07-06T07:49:42.567Z,22.37
2018-07-06T07:52:22.130Z,23.17
2018-07-06T07:54:51.529Z,24.90
2018-07-06T07:57:19.828Z,23.97
2018-07-06T07:59:48.739Z,23.27
2018-07-06T08:02:17.161Z,26.03
2018-07-06T08:04:45.720Z,26.73
2018-07-06T08:07:13.737Z,26.80
2018-07-06T08:09:41.990Z,27.00
2018-07-06T08:12:09.964Z,26.07
2018-07-06T08:14:38.184Z,28.67
2018-07-06T08:17:06.415Z,28.87
2018-07-06T08:19:34.719Z,30.17
2018-07-06T08:22:02.942Z,28.90
2018-07-06T08:24:31.156Z,25.67
2018-07-06T08:26:59.484Z,28.73
2018-07-06T08:29:27.648Z,26.70
2018-07-06T08:31:55.861Z,28.57
2018-07-06T08:34:35.529Z,25.90
2018-07-06T08:37:47.239Z,25.53
2018-07-06T08:40:15.692Z,26.73
2018-07-06T08:42:52.297Z,25.43
2018-07-06T08:45:20.525Z,25.50
2018-07-06T08:47:49.191Z,24.17
2018-07-06T08:50:17.419Z,24.77
2018-07-06T08:52:46.804Z,26.73
2018-07-06T08:55:15.067Z,25.40
2018-07-06T08:57:44.418Z,25.93
2018-07-06T09:00:12.865Z,25.87
2018-07-06T09:02:41.077Z,24.73
2018-07-06T09:05:09.889Z,23.63
2018-07-06T09:07:38.190Z,25.23
2018-07-06T09:10:06.456Z,24.43
2018-07-06T09:12:34.676Z,23.70
2018-07-06T09:15:03.679Z,23.83
2018-07-06T09:17:31.928Z,23.97
2018-07-06T09:20:00.877Z,22.67
2018-07-06T09:22:28.917Z,23.07
2018-07-06T09:25:00.418Z,25.07
2018-07-06T09:27:28.705Z,25.30
2018-07-06T09:29:57.156Z,24.77
2018-07-06T09:32:25.388Z,22.80
2018-07-06T09:34:53.589Z,24.47
2018-07-06T09:37:21.904Z,26.00
2018-07-06T09:39:50.741Z,25.80
2018-07-06T09:42:19.227Z,24.77
2018-07-06T09:44:47.464Z,20.73
2018-07-06T09:47:15.688Z,22.20
2018-07-06T09:49:43.897Z,21.50
2018-07-06T09:52:12.109Z,22.37
2018-07-06T09:54:40.303Z,21.57
2018-07-06T09:57:08.570Z,18.83
2018-07-06T09:59:36.769Z,17.73
2018-07-06T10:02:05.013Z,16.67
2018-07-06T10:04:33.240Z,17.30
2018-07-06T10:07:01.437Z,17.30
2018-07-06T10:09:29.673Z,17.87
2018-07-06T10:11:57.881Z,18.47
2018-07-06T10:14:25.828Z,16.60
2018-07-06T10:16:54.712Z,18.07
2018-07-06T10:19:22.902Z,17.63
2018-07-06T10:21:51.187Z,20.07
2018-07-06T10:24:19.331Z,19.80
2018-07-06T10:26:48.367Z,18.27
2018-07-06T10:30:28.204Z,19.67
2018-07-06T10:32:56.406Z,17.97
2018-07-06T10:35:24.624Z,22.50
2018-07-06T10:37:52.897Z,20.37
2018-07-06T10:40:21.113Z,18.17
2018-07-06T10:42:49.349Z,18.27
2018-07-06T10:45:17.552Z,17.47
2018-07-06T10:47:45.808Z,19.67
2018-07-06T10:50:13.788Z,16.50
2018-07-06T10:52:41.728Z,16.43
2018-07-06T10:55:09.968Z,17.10
2018-07-06T10:57:38.175Z,19.87
2018-07-06T11:00:06.393Z,19.03
2018-07-06T11:02:34.632Z,21.73
2018-07-06T11:05:02.973Z,17.83
2018-07-06T11:07:31.080Z,16.67
2018-07-06T11:09:59.272Z,20.63
2018-07-06T11:12:27.528Z,20.00
2018-07-06T11:14:55.735Z,17.00
2018-07-06T11:17:23.988Z,15.73
2018-07-06T11:19:52.213Z,16.17
2018-07-06T11:22:20.411Z,16.27
2018-07-06T11:24:48.645Z,16.63
2018-07-06T11:27:16.864Z,21.77
2018-07-06T11:29:45.085Z,15.10
2018-07-06T11:32:13.494Z,13.97
2018-07-06T11:34:41.528Z,15.30
2018-07-06T11:37:10.628Z,16.63
2018-07-06T11:39:38.841Z,14.73
2018-07-06T11:42:07.053Z,15.60
2018-07-06T11:44:35.293Z,12.57
2018-07-06T11:47:03.512Z,9.77
2018-07-06T11:49:31.717Z,8.93
2018-07-06T11:51:59.945Z,10.17
2018-07-06T11:54:28.132Z,8.90
2018-07-06T11:56:56.372Z,7.43
2018-07-06T11:59:24.413Z,8.00
2018-07-06T12:01:52.690Z,6.30
2018-07-06T12:04:20.969Z,10.87
2018-07-06T12:06:49.168Z,10.87
2018-07-06T12:09:17.380Z,11.77
2018-07-06T12:11:45.603Z,11.63
2018-07-06T12:14:13.843Z,11.40
2018-07-06T12:16:42.064Z,4.37
2018-07-06T12:19:10.285Z,6.87
2018-07-06T12:21:38.485Z,3.77
2018-07-06T12:24:06.735Z,6.10
2018-07-06T12:26:35.032Z,4.10
2018-07-06T12:29:03.351Z,3.13
2018-07-06T12:31:32.025Z,2.67
2018-07-06T12:34:00.241Z,3.23
2018-07-06T12:36:28.771Z,6.30
2018-07-06T12:38:57.021Z,2.83
2018-07-06T12:41:25.243Z,4.97
2018-07-06T12:43:53.431Z,3.10
2018-07-06T12:46:21.390Z,2.93
2018-07-06T12:48:49.657Z,2.50
2018-07-06T12:51:17.812Z,3.00
2018-07-06T12:53:46.020Z,3.07
2018-07-06T12:56:14.248Z,3.47
2018-07-06T12:58:42.588Z,3.70
2018-07-06T13:01:10.664Z,2.97
2018-07-06T13:03:38.864Z,3.00
2018-07-06T13:06:07.088Z,3.00
2018-07-06T13:08:35.304Z,2.70
2018-07-06T13:11:03.292Z,2.90
2018-07-06T13:13:31.284Z,3.50
2018-07-06T13:15:59.494Z,4.00
2018-07-06T13:18:27.753Z,2.73
2018-07-06T13:20:56.046Z,2.10
2018-07-06T13:23:24.241Z,3.60
2018-07-06T13:25:52.867Z,2.20
2018-07-06T13:28:21.732Z,2.30
2018-07-06T13:30:49.663Z,2.50
2018-07-06T13:33:17.951Z,3.20
2018-07-06T13:35:46.152Z,2.90
2018-07-06T13:38:14.365Z,2.10
2018-07-06T13:40:42.599Z,2.03
2018-07-06T13:43:10.850Z,2.07
2018-07-06T13:45:39.066Z,2.40
2018-07-06T13:48:07.260Z,2.57
2018-07-06T13:50:35.477Z,3.30
2018-07-06T13:53:03.696Z,2.23
2018-07-06T13:55:31.637Z,2.37
2018-07-06T13:57:59.865Z,2.37
2018-07-06T14:00:28.088Z,2.20
2018-07-06T14:02:56.275Z,2.43
2018-07-06T14:05:24.685Z,2.80
2018-07-06T14:07:53.024Z,2.53
2018-07-06T14:10:20.942Z,2.73
2018-07-06T14:12:49.168Z,2.90
2018-07-06T14:15:17.391Z,2.20
2018-07-06T14:17:45.694Z,2.30
2018-07-06T14:20:13.885Z,2.50
2018-07-06T14:22:42.360Z,2.37
2018-07-06T14:25:10.567Z,2.13
2018-07-06T14:27:38.803Z,2.10
2018-07-06T14:30:06.975Z,2.20
2018-07-06T14:32:35.197Z,2.13
2018-07-06T14:35:03.488Z,2.97
2018-07-06T14:37:31.708Z,2.43
2018-07-06T14:39:59.972Z,2.30
2018-07-06T14:42:28.196Z,2.77
2018-07-06T14:44:56.396Z,2.70
2018-07-06T14:47:24.615Z,3.23
2018-07-06T14:49:52.822Z,1.73
2018-07-06T14:52:21.023Z,1.87
2018-07-06T14:54:49.284Z,1.97
2018-07-06T14:57:17.512Z,2.52
2018-07-06T14:59:45.958Z,2.60
2018-07-06T15:02:14.124Z,2.47
2018-07-06T15:04:42.323Z,3.62
2018-07-06T15:07:10.549Z,2.10
2018-07-06T15:09:38.761Z,2.17
2018-07-06T15:12:06.964Z,2.65
2018-07-06T15:14:35.221Z,2.67
2018-07-06T15:17:03.454Z,1.98
2018-07-06T15:19:31.673Z,3.90
2018-07-06T15:21:59.861Z,1.95
2018-07-06T15:24:28.448Z,2.15
2018-07-06T15:26:56.668Z,1.92
2018-07-06T15:29:24.891Z,1.67
2018-07-06T15:31:53.116Z,1.75
2018-07-06T15:34:21.324Z,1.85
2018-07-06T15:36:49.525Z,2.85
2018-07-06T15:39:17.764Z,1.80
2018-07-06T15:41:45.988Z,2.83
2018-07-06T15:44:14.205Z,2.50
2018-07-06T15:46:44.030Z,2.47
2018-07-06T15:49:13.852Z,2.20
2018-07-06T15:51:42.112Z,4.30
2018-07-06T15:54:10.488Z,3.00
2018-07-06T15:56:38.885Z,5.13
2018-07-06T15:59:07.112Z,3.50
2018-07-06T16:01:36.034Z,4.43
2018-07-06T16:04:04.344Z,3.07
2018-07-06T16:06:32.655Z,2.53
2018-07-06T16:09:01.169Z,2.30
2018-07-06T16:11:29.565Z,2.83
2018-07-06T16:14:00.054Z,5.70
2018-07-06T16:16:28.276Z,3.47
2018-07-06T16:19:01.824Z,3.20
2018-07-06T16:21:30.057Z,3.23
2018-07-06T16:23:58.268Z,3.33
2018-07-06T16:26:26.705Z,6.23
2018-07-06T16:28:55.138Z,4.50
2018-07-06T16:31:25.607Z,3.80
2018-07-06T16:33:54.781Z,3.47
2018-07-06T16:36:23.084Z,3.10
2018-07-06T16:38:51.252Z,3.10
2018-07-06T16:41:19.521Z,3.93
2018-07-06T16:43:47.817Z,5.93
2018-07-06T16:46:16.057Z,4.37
2018-07-06T16:48:44.257Z,4.33
2018-07-06T16:51:12.474Z,2.90
2018-07-06T16:53:40.672Z,3.33
2018-07-06T16:56:08.933Z,3.10
2018-07-06T16:58:37.213Z,3.77
2018-07-06T17:01:05.462Z,3.13
2018-07-06T17:03:33.620Z,3.23
2018-07-06T17:06:01.844Z,2.73
2018-07-06T17:08:30.041Z,2.60
2018-07-06T17:10:58.269Z,5.63
2018-07-06T17:13:26.476Z,2.50
2018-07-06T17:15:54.685Z,2.37
2018-07-06T17:18:22.904Z,2.73
2018-07-06T17:20:51.106Z,2.23
2018-07-06T17:23:19.062Z,2.60
2018-07-06T17:25:47.263Z,4.30
2018-07-06T17:28:15.793Z,2.90
2018-07-06T17:30:44.048Z,2.07
2018-07-06T17:33:12.241Z,3.00
2018-07-06T17:35:40.472Z,4.17
2018-07-06T17:38:08.713Z,2.07
2018-07-06T17:40:36.920Z,2.97
2018-07-06T17:43:05.152Z,2.23
2018-07-06T17:45:33.389Z,2.63
2018-07-06T17:48:01.605Z,2.63
2018-07-06T17:50:29.895Z,2.60
2018-07-06T17:52:58.047Z,4.87
2018-07-06T17:55:26.277Z,2.47
2018-07-06T17:57:54.522Z,2.57
2018-07-06T18:00:22.812Z,2.37
2018-07-06T18:02:51.020Z,3.03
2018-07-06T18:05:19.209Z,3.43
2018-07-06T18:07:47.453Z,3.10
2018-07-06T18:10:15.388Z,4.20
2018-07-06T18:12:43.629Z,3.23
2018-07-06T18:15:11.944Z,3.20
2018-07-06T18:17:40.159Z,2.87
2018-07-06T18:20:08.368Z,2.73
2018-07-06T18:22:36.590Z,4.70
2018-07-06T18:25:04.816Z,3.47
2018-07-06T18:27:33.013Z,4.57
2018-07-06T18:30:01.220Z,4.00
2018-07-06T18:32:29.816Z,5.50
2018-07-06T18:34:58.025Z,5.90
2018-07-06T18:37:26.310Z,7.27
2018-07-06T18:39:54.484Z,7.03
2018-07-06T18:42:22.715Z,7.97
2018-07-06T18:44:51.497Z,9.90
2018-07-06T18:47:19.699Z,8.27
2018-07-06T18:49:47.887Z,9.47
2018-07-06T18:52:16.097Z,9.23
2018-07-06T18:54:44.309Z,9.10
2018-07-06T18:57:12.485Z,8.77
2018-07-06T18:59:40.717Z,9.27
2018-07-06T19:02:08.900Z,9.60
2018-07-06T19:04:37.096Z,9.67
2018-07-06T19:07:05.424Z,9.10
2018-07-06T19:09:33.657Z,10.13
2018-07-06T19:12:01.864Z,9.33
2018-07-06T19:14:30.132Z,8.77
2018-07-06T19:16:58.404Z,9.83
2018-07-06T19:19:26.628Z,8.50
2018-07-06T19:21:54.941Z,9.30
2018-07-06T19:24:23.141Z,7.63
2018-07-06T19:26:51.388Z,10.97
2018-07-06T19:29:19.605Z,8.23
2018-07-06T19:31:47.789Z,8.40
2018-07-06T19:34:15.996Z,8.97
2018-07-06T19:36:44.217Z,8.97
2018-07-06T19:39:12.489Z,9.27
2018-07-06T19:41:40.650Z,10.23
2018-07-06T19:44:09.148Z,9.53
2018-07-06T19:46:37.569Z,12.83
2018-07-06T19:49:05.769Z,11.30
2018-07-06T19:51:34.013Z,10.80
2018-07-06T19:54:02.212Z,9.67
2018-07-06T19:56:30.420Z,10.77
2018-07-06T19:58:58.385Z,11.20
2018-07-06T20:01:26.617Z,9.90
2018-07-06T20:03:54.841Z,10.23
2018-07-06T20:06:24.029Z,10.13
2018-07-06T20:08:52.407Z,9.40
2018-07-06T20:11:20.673Z,12.93
2018-07-06T20:13:48.873Z,13.40
2018-07-06T20:16:17.075Z,9.80
2018-07-06T20:18:45.320Z,9.47
2018-07-06T20:21:13.261Z,11.53
2018-07-06T20:23:41.719Z,10.67
2018-07-06T20:26:09.919Z,10.77
2018-07-06T20:28:38.132Z,9.10
2018-07-06T20:31:06.370Z,11.63
2018-07-06T20:33:34.588Z,13.77
2018-07-06T20:36:02.784Z,12.33
2018-07-06T20:38:30.999Z,9.43
2018-07-06T20:40:59.216Z,10.17
2018-07-06T20:43:27.430Z,10.47
2018-07-06T20:45:55.628Z,9.43
2018-07-06T20:48:23.825Z,10.20
2018-07-06T20:50:52.077Z,11.77
2018-07-06T20:53:20.306Z,12.00
2018-07-06T20:55:48.517Z,9.53
2018-07-06T20:58:16.739Z,11.97
2018-07-06T21:00:44.989Z,11.90
2018-07-06T21:03:13.199Z,12.17
2018-07-06T21:05:41.460Z,11.03
2018-07-06T21:08:09.724Z,12.67
2018-07-06T21:10:37.961Z,11.33
2018-07-06T21:13:06.148Z,12.03
2018-07-06T21:15:34.331Z,9.93
2018-07-06T21:18:02.562Z,12.23
2018-07-06T21:20:30.873Z,11.90
2018-07-06T21:22:59.096Z,12.70
2018-07-06T21:25:27.326Z,12.27
2018-07-06T21:27:55.623Z,10.40
2018-07-06T21:30:23.848Z,12.33
2018-07-06T21:32:52.063Z,14.43
2018-07-06T21:35:20.280Z,11.80
2018-07-06T21:37:48.528Z,11.40
2018-07-06T21:40:16.729Z,13.43
2018-07-06T21:42:44.979Z,14.83
2018-07-06T21:45:13.216Z,15.93
2018-07-06T21:47:41.416Z,13.00
2018-07-06T21:50:09.628Z,13.13
2018-07-06T21:52:38.504Z,14.27
2018-07-06T21:55:06.726Z,13.57
2018-07-06T21:57:34.992Z,18.03
2018-07-06T22:00:03.220Z,14.80
2018-07-06T22:02:31.184Z,13.27
2018-07-06T22:04:59.401Z,14.40
2018-07-06T22:07:27.592Z,15.67
2018-07-06T22:09:55.829Z,16.67
2018-07-06T22:12:24.048Z,16.10
2018-07-06T22:14:52.252Z,21.57
2018-07-06T22:17:20.520Z,14.67
2018-07-06T22:19:48.720Z,15.90
2018-07-06T22:22:16.920Z,16.10
2018-07-06T22:24:45.144Z,18.73
2018-07-06T22:27:13.344Z,14.57
2018-07-06T22:29:41.569Z,17.07
2018-07-06T22:32:09.815Z,15.60
2018-07-06T22:34:38.025Z,17.40
2018-07-06T22:37:05.989Z,17.43
2018-07-06T22:39:34.228Z,17.53
2018-07-06T22:42:02.453Z,18.27
2018-07-06T22:44:30.688Z,18.87
2018-07-06T22:46:58.919Z,19.23
2018-07-06T22:49:27.127Z,18.20
2018-07-06T22:51:55.356Z,19.50
2018-07-06T22:54:23.635Z,18.97
2018-07-06T22:56:51.840Z,21.30
2018-07-06T22:59:20.065Z,23.13
2018-07-06T23:01:48.309Z,22.10
2018-07-06T23:04:17.227Z,19.87
2018-07-06T23:06:45.389Z,18.63
2018-07-06T23:09:13.708Z,17.77
2018-07-06T23:11:41.895Z,21.47
2018-07-06T23:14:10.131Z,25.37
2018-07-06T23:16:38.324Z,18.40
2018-07-06T23:19:06.593Z,18.30
2018-07-06T23:21:34.788Z,21.90
2018-07-06T23:24:02.793Z,22.97
2018-07-06T23:26:30.992Z,19.17
2018-07-06T23:28:59.208Z,18.90
2018-07-06T23:31:27.422Z,19.77
2018-07-06T23:33:55.660Z,19.13
2018-07-06T23:36:23.888Z,21.73
2018-07-06T23:38:52.108Z,20.60
2018-07-06T23:41:20.333Z,21.20
2018-07-06T23:43:48.564Z,22.07
2018-07-06T23:46:16.840Z,23.13
2018-07-06T23:48:45.060Z,23.23
2018-07-06T23:51:13.284Z,22.37
2018-07-06T23:53:41.501Z,21.87
2018-07-06T23:56:09.743Z,24.43
2018-07-06T23:58:37.956Z,23.90
